sensor_id;sensor_type;location;lat;lon;timestamp;pressure;altitude;pressure_sealevel;temperature;humidity
54270;BME280;40181;51.560;13.000;2023-07-31T00:00:44;100298.34;;;17.26;84.21
54270;BME280;40181;51.560;13.000;2023-07-31T00:03:13;100285.81;;;17.33;84.73
54270;BME280;40181;51.560;13.000;2023-07-31T00:05:45;100283.31;;;17.25;83.88
54270;BME280;40181;51.560;13.000;2023-07-31T00:08:14;100285.31;;;17.14;84.17
54270;BME280;40181;51.560;13.000;2023-07-31T00:10:44;100290.44;;;17.23;83.44
54270;BME280;40181;51.560;13.000;2023-07-31T00:13:13;100283.47;;;17.18;82.89
54270;BME280;40181;51.560;13.000;2023-07-31T00:15:42;100291.28;;;17.25;82.50
54270;BME280;40181;51.560;13.000;2023-07-31T00:18:11;100276.09;;;17.32;82.53
54270;BME280;40181;51.560;13.000;2023-07-31T00:20:40;100284.22;;;17.26;82.14
54270;BME280;40181;51.560;13.000;2023-07-31T00:23:12;100269.88;;;17.33;82.40
54270;BME280;40181;51.560;13.000;2023-07-31T00:25:41;100269.28;;;17.19;82.39
54270;BME280;40181;51.560;13.000;2023-07-31T00:28:10;100277.28;;;17.17;81.92
54270;BME280;40181;51.560;13.000;2023-07-31T00:30:39;100261.97;;;17.32;81.31
54270;BME280;40181;51.560;13.000;2023-07-31T00:33:09;100272.22;;;17.03;82.02
54270;BME280;40181;51.560;13.000;2023-07-31T00:35:38;100272.13;;;17.09;81.78
54270;BME280;40181;51.560;13.000;2023-07-31T00:38:07;100280.22;;;16.98;81.41
54270;BME280;40181;51.560;13.000;2023-07-31T00:40:39;100272.28;;;16.97;81.50
54270;BME280;40181;51.560;13.000;2023-07-31T00:43:08;100270.22;;;17.16;82.17
54270;BME280;40181;51.560;13.000;2023-07-31T00:45:37;100264.47;;;16.89;81.50
54270;BME280;40181;51.560;13.000;2023-07-31T00:48:07;100266.19;;;16.93;81.49
54270;BME280;40181;51.560;13.000;2023-07-31T00:50:36;100267.44;;;16.70;81.82
54270;BME280;40181;51.560;13.000;2023-07-31T00:53:06;100253.53;;;17.09;81.19
54270;BME280;40181;51.560;13.000;2023-07-31T00:55:35;100257.94;;;17.10;80.54
54270;BME280;40181;51.560;13.000;2023-07-31T00:58:07;100260.81;;;16.98;81.07
54270;BME280;40181;51.560;13.000;2023-07-31T01:00:36;100255.38;;;17.06;80.70
54270;BME280;40181;51.560;13.000;2023-07-31T01:03:05;100264.09;;;17.12;80.30
54270;BME280;40181;51.560;13.000;2023-07-31T01:05:41;100249.81;;;17.18;79.59
54270;BME280;40181;51.560;13.000;2023-07-31T01:08:20;100256.53;;;16.89;79.83
54270;BME280;40181;51.560;13.000;2023-07-31T01:11:09;100251.72;;;17.11;80.13
54270;BME280;40181;51.560;13.000;2023-07-31T01:13:42;100257.22;;;17.02;79.73
54270;BME280;40181;51.560;13.000;2023-07-31T01:16:12;100252.13;;;16.88;79.72
54270;BME280;40181;51.560;13.000;2023-07-31T01:18:42;100250.97;;;17.06;79.48
54270;BME280;40181;51.560;13.000;2023-07-31T01:21:35;100249.91;;;17.13;79.38
54270;BME280;40181;51.560;13.000;2023-07-31T01:24:21;100255.66;;;16.89;79.86
54270;BME280;40181;51.560;13.000;2023-07-31T01:26:56;100252.47;;;17.18;79.20
54270;BME280;40181;51.560;13.000;2023-07-31T01:29:37;100258.22;;;16.93;80.11
54270;BME280;40181;51.560;13.000;2023-07-31T01:32:11;100254.38;;;17.11;80.27
54270;BME280;40181;51.560;13.000;2023-07-31T01:34:41;100249.41;;;16.91;80.09
54270;BME280;40181;51.560;13.000;2023-07-31T01:37:11;100235.97;;;17.02;80.07
54270;BME280;40181;51.560;13.000;2023-07-31T01:39:40;100244.75;;;17.06;80.95
54270;BME280;40181;51.560;13.000;2023-07-31T01:42:12;100246.13;;;16.77;82.00
54270;BME280;40181;51.560;13.000;2023-07-31T01:44:41;100247.88;;;16.79;81.78
54270;BME280;40181;51.560;13.000;2023-07-31T01:47:10;100240.09;;;16.68;83.39
54270;BME280;40181;51.560;13.000;2023-07-31T01:49:39;100245.16;;;16.81;83.53
54270;BME280;40181;51.560;13.000;2023-07-31T01:52:08;100236.91;;;16.98;82.95
54270;BME280;40181;51.560;13.000;2023-07-31T01:54:37;100238.75;;;16.94;84.82
54270;BME280;40181;51.560;13.000;2023-07-31T01:57:06;100238.75;;;16.94;83.58
54270;BME280;40181;51.560;13.000;2023-07-31T01:59:38;100243.16;;;16.95;84.93
54270;BME280;40181;51.560;13.000;2023-07-31T02:02:08;100235.56;;;16.73;84.83
54270;BME280;40181;51.560;13.000;2023-07-31T02:04:37;100234.03;;;16.58;85.20
54270;BME280;40181;51.560;13.000;2023-07-31T02:07:06;100230.47;;;16.61;85.35
54270;BME280;40181;51.560;13.000;2023-07-31T02:09:35;100228.75;;;16.58;85.30
54270;BME280;40181;51.560;13.000;2023-07-31T02:12:05;100225.91;;;16.69;86.33
54270;BME280;40181;51.560;13.000;2023-07-31T02:14:37;100222.25;;;16.77;85.42
54270;BME280;40181;51.560;13.000;2023-07-31T02:17:07;100227.00;;;16.57;86.79
54270;BME280;40181;51.560;13.000;2023-07-31T02:19:36;100229.44;;;16.70;87.00
54270;BME280;40181;51.560;13.000;2023-07-31T02:22:05;100223.16;;;16.76;85.53
54270;BME280;40181;51.560;13.000;2023-07-31T02:24:34;100215.47;;;16.60;85.89
54270;BME280;40181;51.560;13.000;2023-07-31T02:27:04;100226.13;;;16.57;86.96
54270;BME280;40181;51.560;13.000;2023-07-31T02:29:34;100219.34;;;16.39;87.22
54270;BME280;40181;51.560;13.000;2023-07-31T02:32:06;100219.22;;;16.46;87.14
54270;BME280;40181;51.560;13.000;2023-07-31T02:34:35;100218.69;;;16.78;86.55
54270;BME280;40181;51.560;13.000;2023-07-31T02:37:05;100221.78;;;16.51;87.48
54270;BME280;40181;51.560;13.000;2023-07-31T02:39:34;100227.41;;;16.86;87.35
54270;BME280;40181;51.560;13.000;2023-07-31T02:42:04;100220.00;;;16.53;88.30
54270;BME280;40181;51.560;13.000;2023-07-31T02:44:33;100214.19;;;16.31;89.35
54270;BME280;40181;51.560;13.000;2023-07-31T02:47:05;100206.16;;;16.36;88.28
54270;BME280;40181;51.560;13.000;2023-07-31T02:49:35;100209.19;;;16.64;88.88
54270;BME280;40181;51.560;13.000;2023-07-31T02:52:04;100207.69;;;16.49;88.73
54270;BME280;40181;51.560;13.000;2023-07-31T02:54:34;100201.25;;;16.64;89.64
54270;BME280;40181;51.560;13.000;2023-07-31T02:57:04;100201.16;;;16.69;87.89
54270;BME280;40181;51.560;13.000;2023-07-31T02:59:33;100210.09;;;16.65;88.10
54270;BME280;40181;51.560;13.000;2023-07-31T03:02:03;100199.72;;;16.51;89.06
54270;BME280;40181;51.560;13.000;2023-07-31T03:04:35;100206.59;;;16.61;89.25
54270;BME280;40181;51.560;13.000;2023-07-31T03:07:04;100201.63;;;16.42;89.83
54270;BME280;40181;51.560;13.000;2023-07-31T03:09:34;100210.50;;;16.40;90.46
54270;BME280;40181;51.560;13.000;2023-07-31T03:12:03;100203.44;;;16.39;90.55
54270;BME280;40181;51.560;13.000;2023-07-31T03:14:33;100189.38;;;16.34;91.84
54270;BME280;40181;51.560;13.000;2023-07-31T03:17:02;100193.50;;;16.52;90.68
54270;BME280;40181;51.560;13.000;2023-07-31T03:19:34;100193.28;;;16.64;90.21
54270;BME280;40181;51.560;13.000;2023-07-31T03:22:04;100184.22;;;16.26;90.85
54270;BME280;40181;51.560;13.000;2023-07-31T03:24:33;100181.06;;;16.57;90.15
54270;BME280;40181;51.560;13.000;2023-07-31T03:27:03;100191.16;;;16.33;91.66
54270;BME280;40181;51.560;13.000;2023-07-31T03:29:33;100198.44;;;16.20;92.40
54270;BME280;40181;51.560;13.000;2023-07-31T03:32:02;100184.28;;;16.21;92.67
54270;BME280;40181;51.560;13.000;2023-07-31T03:34:35;100185.25;;;16.15;92.78
54270;BME280;40181;51.560;13.000;2023-07-31T03:37:05;100188.22;;;15.95;93.68
54270;BME280;40181;51.560;13.000;2023-07-31T03:39:34;100185.56;;;15.95;94.24
54270;BME280;40181;51.560;13.000;2023-07-31T03:42:04;100177.03;;;16.32;93.03
54270;BME280;40181;51.560;13.000;2023-07-31T03:44:34;100188.66;;;16.25;92.66
54270;BME280;40181;51.560;13.000;2023-07-31T03:47:04;100185.06;;;16.28;93.41
54270;BME280;40181;51.560;13.000;2023-07-31T03:49:36;100174.03;;;15.98;93.86
54270;BME280;40181;51.560;13.000;2023-07-31T03:52:06;100171.72;;;16.34;92.44
54270;BME280;40181;51.560;13.000;2023-07-31T03:54:35;100174.84;;;16.58;91.85
54270;BME280;40181;51.560;13.000;2023-07-31T03:57:05;100173.50;;;16.32;92.34
54270;BME280;40181;51.560;13.000;2023-07-31T03:59:34;100177.16;;;16.25;93.31
54270;BME280;40181;51.560;13.000;2023-07-31T04:02:04;100170.34;;;16.08;93.85
54270;BME280;40181;51.560;13.000;2023-07-31T04:04:35;100167.47;;;16.24;94.23
54270;BME280;40181;51.560;13.000;2023-07-31T04:07:05;100170.81;;;16.35;93.49
54270;BME280;40181;51.560;13.000;2023-07-31T04:09:34;100156.53;;;16.44;93.72
54270;BME280;40181;51.560;13.000;2023-07-31T04:12:03;100156.94;;;16.19;94.11
54270;BME280;40181;51.560;13.000;2023-07-31T04:14:33;100158.22;;;16.46;93.26
54270;BME280;40181;51.560;13.000;2023-07-31T04:17:02;100158.66;;;16.22;94.40
54270;BME280;40181;51.560;13.000;2023-07-31T04:19:31;100154.13;;;16.28;94.86
54270;BME280;40181;51.560;13.000;2023-07-31T04:22:03;100148.94;;;16.22;95.06
54270;BME280;40181;51.560;13.000;2023-07-31T04:24:32;100147.44;;;16.59;93.93
54270;BME280;40181;51.560;13.000;2023-07-31T04:27:02;100152.28;;;16.84;93.15
54270;BME280;40181;51.560;13.000;2023-07-31T04:29:31;100146.28;;;16.22;94.18
54270;BME280;40181;51.560;13.000;2023-07-31T04:32:00;100138.94;;;16.38;94.77
54270;BME280;40181;51.560;13.000;2023-07-31T04:34:30;100151.34;;;16.36;95.85
54270;BME280;40181;51.560;13.000;2023-07-31T04:36:59;100144.31;;;16.34;95.35
54270;BME280;40181;51.560;13.000;2023-07-31T04:39:33;100145.19;;;16.34;95.92
54270;BME280;40181;51.560;13.000;2023-07-31T04:42:03;100141.13;;;16.65;94.62
54270;BME280;40181;51.560;13.000;2023-07-31T04:44:32;100139.22;;;16.23;95.60
54270;BME280;40181;51.560;13.000;2023-07-31T04:47:02;100141.06;;;16.16;96.32
54270;BME280;40181;51.560;13.000;2023-07-31T04:49:31;100144.88;;;16.53;95.95
54270;BME280;40181;51.560;13.000;2023-07-31T04:52:04;100143.03;;;16.04;96.72
54270;BME280;40181;51.560;13.000;2023-07-31T04:54:33;100139.16;;;16.24;97.32
54270;BME280;40181;51.560;13.000;2023-07-31T04:57:03;100133.09;;;16.17;97.65
54270;BME280;40181;51.560;13.000;2023-07-31T04:59:33;100127.03;;;16.11;98.01
54270;BME280;40181;51.560;13.000;2023-07-31T05:02:02;100122.31;;;16.30;96.57
54270;BME280;40181;51.560;13.000;2023-07-31T05:04:32;100125.47;;;16.51;96.96
54270;BME280;40181;51.560;13.000;2023-07-31T05:07:04;100128.72;;;16.15;97.20
54270;BME280;40181;51.560;13.000;2023-07-31T05:09:33;100126.22;;;16.07;98.36
54270;BME280;40181;51.560;13.000;2023-07-31T05:12:05;100134.84;;;16.18;98.40
54270;BME280;40181;51.560;13.000;2023-07-31T05:14:34;100135.28;;;15.94;100.00
54270;BME280;40181;51.560;13.000;2023-07-31T05:17:04;100115.25;;;16.29;100.00
54270;BME280;40181;51.560;13.000;2023-07-31T05:19:36;100114.81;;;16.02;100.00
54270;BME280;40181;51.560;13.000;2023-07-31T05:22:08;100131.03;;;15.79;100.00
54270;BME280;40181;51.560;13.000;2023-07-31T05:24:46;100110.81;;;16.29;99.64
54270;BME280;40181;51.560;13.000;2023-07-31T05:27:15;100113.03;;;16.04;100.00
54270;BME280;40181;51.560;13.000;2023-07-31T05:29:44;100130.38;;;16.22;100.00
54270;BME280;40181;51.560;13.000;2023-07-31T05:32:14;100119.16;;;16.08;100.00
54270;BME280;40181;51.560;13.000;2023-07-31T05:34:43;100134.44;;;15.87;100.00
54270;BME280;40181;51.560;13.000;2023-07-31T05:37:15;100130.44;;;15.59;100.00
54270;BME280;40181;51.560;13.000;2023-07-31T05:39:44;100116.03;;;15.77;100.00
54270;BME280;40181;51.560;13.000;2023-07-31T05:42:13;100129.47;;;15.67;100.00
54270;BME280;40181;51.560;13.000;2023-07-31T05:44:42;100118.81;;;15.68;100.00
54270;BME280;40181;51.560;13.000;2023-07-31T05:47:12;100123.16;;;15.74;100.00
54270;BME280;40181;51.560;13.000;2023-07-31T05:49:41;100126.47;;;15.88;100.00
54270;BME280;40181;51.560;13.000;2023-07-31T05:52:10;100124.63;;;15.95;100.00
54270;BME280;40181;51.560;13.000;2023-07-31T05:54:42;100128.03;;;16.02;100.00
54270;BME280;40181;51.560;13.000;2023-07-31T05:57:11;100124.53;;;16.01;100.00
54270;BME280;40181;51.560;13.000;2023-07-31T05:59:40;100121.66;;;16.15;100.00
54270;BME280;40181;51.560;13.000;2023-07-31T06:02:10;100111.66;;;15.75;100.00
54270;BME280;40181;51.560;13.000;2023-07-31T06:04:39;100120.34;;;15.85;100.00
54270;BME280;40181;51.560;13.000;2023-07-31T06:07:08;100115.13;;;15.80;100.00
54270;BME280;40181;51.560;13.000;2023-07-31T06:09:37;100116.09;;;15.74;100.00
54270;BME280;40181;51.560;13.000;2023-07-31T06:12:09;100121.06;;;15.98;100.00
54270;BME280;40181;51.560;13.000;2023-07-31T06:14:38;100117.78;;;15.79;100.00
54270;BME280;40181;51.560;13.000;2023-07-31T06:17:07;100112.28;;;15.96;100.00
54270;BME280;40181;51.560;13.000;2023-07-31T06:19:36;100110.25;;;16.10;100.00
54270;BME280;40181;51.560;13.000;2023-07-31T06:22:05;100111.38;;;15.95;100.00
54270;BME280;40181;51.560;13.000;2023-07-31T06:24:35;100106.13;;;15.89;100.00
54270;BME280;40181;51.560;13.000;2023-07-31T06:27:05;100109.50;;;16.03;100.00
54270;BME280;40181;51.560;13.000;2023-07-31T06:29:37;100122.19;;;15.80;100.00
54270;BME280;40181;51.560;13.000;2023-07-31T06:32:07;100121.38;;;15.76;100.00
54270;BME280;40181;51.560;13.000;2023-07-31T06:34:36;100115.91;;;15.87;100.00
54270;BME280;40181;51.560;13.000;2023-07-31T06:37:06;100112.06;;;16.07;100.00
54270;BME280;40181;51.560;13.000;2023-07-31T06:39:35;100114.56;;;16.17;100.00
54270;BME280;40181;51.560;13.000;2023-07-31T06:42:05;100120.97;;;16.04;100.00
54270;BME280;40181;51.560;13.000;2023-07-31T06:44:37;100127.78;;;16.19;100.00
54270;BME280;40181;51.560;13.000;2023-07-31T06:47:09;100118.47;;;16.46;100.00
54270;BME280;40181;51.560;13.000;2023-07-31T06:49:38;100112.47;;;16.37;100.00
54270;BME280;40181;51.560;13.000;2023-07-31T06:52:07;100108.09;;;16.34;100.00
54270;BME280;40181;51.560;13.000;2023-07-31T06:54:36;100113.50;;;16.28;100.00
54270;BME280;40181;51.560;13.000;2023-07-31T06:57:08;100109.44;;;16.07;100.00
54270;BME280;40181;51.560;13.000;2023-07-31T06:59:37;100113.47;;;16.29;100.00
54270;BME280;40181;51.560;13.000;2023-07-31T07:02:07;100115.13;;;16.37;100.00
54270;BME280;40181;51.560;13.000;2023-07-31T07:04:36;100110.56;;;16.43;100.00
54270;BME280;40181;51.560;13.000;2023-07-31T07:07:05;100105.00;;;16.57;100.00
54270;BME280;40181;51.560;13.000;2023-07-31T07:09:34;100108.34;;;16.69;100.00
54270;BME280;40181;51.560;13.000;2023-07-31T07:12:04;100113.00;;;16.56;100.00
54270;BME280;40181;51.560;13.000;2023-07-31T07:14:37;100108.03;;;16.37;100.00
54270;BME280;40181;51.560;13.000;2023-07-31T07:17:06;100109.41;;;16.60;100.00
54270;BME280;40181;51.560;13.000;2023-07-31T07:19:35;100116.06;;;16.81;100.00
54270;BME280;40181;51.560;13.000;2023-07-31T07:22:05;100105.22;;;16.92;100.00
54270;BME280;40181;51.560;13.000;2023-07-31T07:24:34;100115.06;;;16.87;100.00
54270;BME280;40181;51.560;13.000;2023-07-31T07:27:04;100107.69;;;17.03;100.00
54270;BME280;40181;51.560;13.000;2023-07-31T07:29:37;100120.00;;;17.07;100.00
54270;BME280;40181;51.560;13.000;2023-07-31T07:32:07;100112.72;;;17.17;100.00
54270;BME280;40181;51.560;13.000;2023-07-31T07:34:37;100105.19;;;16.94;100.00
54270;BME280;40181;51.560;13.000;2023-07-31T07:37:06;100105.75;;;17.13;100.00
54270;BME280;40181;51.560;13.000;2023-07-31T07:39:35;100105.78;;;17.10;100.00
54270;BME280;40181;51.560;13.000;2023-07-31T07:42:05;100099.34;;;17.22;100.00
54270;BME280;40181;51.560;13.000;2023-07-31T07:44:36;100104.72;;;17.19;100.00
54270;BME280;40181;51.560;13.000;2023-07-31T07:47:06;100097.44;;;17.28;100.00
54270;BME280;40181;51.560;13.000;2023-07-31T07:49:35;100095.13;;;17.13;100.00
54270;BME280;40181;51.560;13.000;2023-07-31T07:52:05;100093.69;;;17.39;100.00
54270;BME280;40181;51.560;13.000;2023-07-31T07:54:34;100102.06;;;17.20;100.00
54270;BME280;40181;51.560;13.000;2023-07-31T07:57:04;100084.81;;;17.40;100.00
54270;BME280;40181;51.560;13.000;2023-07-31T07:59:33;100096.34;;;17.39;100.00
54270;BME280;40181;51.560;13.000;2023-07-31T08:02:05;100093.63;;;17.40;100.00
54270;BME280;40181;51.560;13.000;2023-07-31T08:04:34;100090.88;;;17.45;100.00
54270;BME280;40181;51.560;13.000;2023-07-31T08:07:04;100100.88;;;17.32;100.00
54270;BME280;40181;51.560;13.000;2023-07-31T08:09:33;100095.00;;;17.59;100.00
54270;BME280;40181;51.560;13.000;2023-07-31T08:12:03;100095.84;;;17.61;99.09
54270;BME280;40181;51.560;13.000;2023-07-31T08:14:32;100101.75;;;17.74;99.03
54270;BME280;40181;51.560;13.000;2023-07-31T08:17:04;100093.25;;;17.58;98.59
54270;BME280;40181;51.560;13.000;2023-07-31T08:19:34;100101.44;;;17.48;99.65
54270;BME280;40181;51.560;13.000;2023-07-31T08:22:03;100104.03;;;17.51;98.09
54270;BME280;40181;51.560;13.000;2023-07-31T08:24:33;100102.31;;;17.87;97.23
54270;BME280;40181;51.560;13.000;2023-07-31T08:27:02;100107.72;;;17.83;97.68
54270;BME280;40181;51.560;13.000;2023-07-31T08:29:31;100102.88;;;17.63;96.71
54270;BME280;40181;51.560;13.000;2023-07-31T08:32:00;100112.91;;;17.88;96.29
54270;BME280;40181;51.560;13.000;2023-07-31T08:34:33;100108.81;;;17.73;95.53
54270;BME280;40181;51.560;13.000;2023-07-31T08:37:02;100107.06;;;17.72;94.81
54270;BME280;40181;51.560;13.000;2023-07-31T08:39:32;100104.75;;;17.96;94.84
54270;BME280;40181;51.560;13.000;2023-07-31T08:42:07;100106.63;;;17.91;95.18
54270;BME280;40181;51.560;13.000;2023-07-31T08:44:37;100102.34;;;17.85;94.57
54270;BME280;40181;51.560;13.000;2023-07-31T08:47:09;100104.94;;;17.88;92.78
54270;BME280;40181;51.560;13.000;2023-07-31T08:49:41;100104.56;;;18.05;92.18
54270;BME280;40181;51.560;13.000;2023-07-31T08:52:11;100104.22;;;18.19;91.56
54270;BME280;40181;51.560;13.000;2023-07-31T08:54:40;100088.81;;;17.96;93.17
54270;BME280;40181;51.560;13.000;2023-07-31T08:57:10;100088.53;;;18.08;92.46
54270;BME280;40181;51.560;13.000;2023-07-31T08:59:40;100097.09;;;17.83;91.74
54270;BME280;40181;51.560;13.000;2023-07-31T09:02:14;100107.66;;;17.85;92.54
54270;BME280;40181;51.560;13.000;2023-07-31T09:04:44;100103.41;;;18.16;90.28
54270;BME280;40181;51.560;13.000;2023-07-31T09:07:14;100100.47;;;18.27;90.45
54270;BME280;40181;51.560;13.000;2023-07-31T09:09:44;100097.25;;;18.15;90.25
54270;BME280;40181;51.560;13.000;2023-07-31T09:12:32;100098.81;;;18.22;89.13
54270;BME280;40181;51.560;13.000;2023-07-31T09:15:01;100107.28;;;18.38;87.69
54270;BME280;40181;51.560;13.000;2023-07-31T09:17:51;100110.91;;;18.34;88.63
54270;BME280;40181;51.560;13.000;2023-07-31T09:20:28;100107.53;;;18.28;88.83
54270;BME280;40181;51.560;13.000;2023-07-31T09:23:05;100095.97;;;18.30;88.42
54270;BME280;40181;51.560;13.000;2023-07-31T09:25:37;100100.22;;;18.37;87.77
54270;BME280;40181;51.560;13.000;2023-07-31T09:28:09;100089.34;;;18.78;87.87
54270;BME280;40181;51.560;13.000;2023-07-31T09:30:45;100105.56;;;18.36;87.39
54270;BME280;40181;51.560;13.000;2023-07-31T09:33:19;100100.69;;;18.52;86.28
54270;BME280;40181;51.560;13.000;2023-07-31T09:35:48;100106.84;;;18.54;85.89
54270;BME280;40181;51.560;13.000;2023-07-31T09:38:17;100096.16;;;18.56;86.34
54270;BME280;40181;51.560;13.000;2023-07-31T09:40:47;100104.53;;;18.42;86.38
54270;BME280;40181;51.560;13.000;2023-07-31T09:43:18;100097.38;;;18.44;85.32
54270;BME280;40181;51.560;13.000;2023-07-31T09:45:48;100090.47;;;18.70;85.16
54270;BME280;40181;51.560;13.000;2023-07-31T09:48:24;100094.94;;;18.69;85.13
54270;BME280;40181;51.560;13.000;2023-07-31T09:50:56;100095.19;;;18.60;85.31
54270;BME280;40181;51.560;13.000;2023-07-31T09:53:33;100103.28;;;18.55;84.35
54270;BME280;40181;51.560;13.000;2023-07-31T09:56:03;100098.53;;;18.66;85.24
54270;BME280;40181;51.560;13.000;2023-07-31T09:58:34;100094.00;;;18.70;84.62
54270;BME280;40181;51.560;13.000;2023-07-31T10:01:03;100094.41;;;18.88;84.69
54270;BME280;40181;51.560;13.000;2023-07-31T10:03:37;100089.50;;;18.72;84.12
54270;BME280;40181;51.560;13.000;2023-07-31T10:06:09;100079.22;;;18.91;84.56
54270;BME280;40181;51.560;13.000;2023-07-31T10:08:39;100073.47;;;19.07;84.23
54270;BME280;40181;51.560;13.000;2023-07-31T10:11:09;100062.03;;;19.03;84.31
54270;BME280;40181;51.560;13.000;2023-07-31T10:13:41;100078.84;;;19.05;82.93
54270;BME280;40181;51.560;13.000;2023-07-31T10:16:12;100082.25;;;19.11;82.00
54270;BME280;40181;51.560;13.000;2023-07-31T10:18:45;100076.34;;;19.29;82.04
54270;BME280;40181;51.560;13.000;2023-07-31T10:21:14;100064.75;;;19.02;82.34
54270;BME280;40181;51.560;13.000;2023-07-31T10:23:44;100055.53;;;19.71;82.05
54270;BME280;40181;51.560;13.000;2023-07-31T10:26:17;100065.47;;;19.66;82.03
54270;BME280;40181;51.560;13.000;2023-07-31T10:28:48;100062.88;;;19.64;85.18
54270;BME280;40181;51.560;13.000;2023-07-31T10:31:19;100070.66;;;19.42;81.96
54270;BME280;40181;51.560;13.000;2023-07-31T10:33:52;100059.06;;;19.14;80.86
54270;BME280;40181;51.560;13.000;2023-07-31T10:36:21;100060.88;;;19.14;79.59
54270;BME280;40181;51.560;13.000;2023-07-31T10:38:50;100050.22;;;19.71;80.29
54270;BME280;40181;51.560;13.000;2023-07-31T10:41:20;100058.13;;;19.45;79.34
54270;BME280;40181;51.560;13.000;2023-07-31T10:43:57;100056.13;;;19.52;80.36
54270;BME280;40181;51.560;13.000;2023-07-31T10:46:28;100040.53;;;19.40;80.58
54270;BME280;40181;51.560;13.000;2023-07-31T10:49:01;100048.03;;;19.27;81.10
54270;BME280;40181;51.560;13.000;2023-07-31T10:51:35;100051.38;;;19.33;81.52
54270;BME280;40181;51.560;13.000;2023-07-31T10:54:15;100067.38;;;19.33;80.81
54270;BME280;40181;51.560;13.000;2023-07-31T10:56:46;100058.81;;;19.22;80.22
54270;BME280;40181;51.560;13.000;2023-07-31T10:59:15;100042.50;;;19.33;80.50
54270;BME280;40181;51.560;13.000;2023-07-31T11:01:52;100034.19;;;19.44;80.85
54270;BME280;40181;51.560;13.000;2023-07-31T11:04:29;100038.19;;;18.99;81.71
54270;BME280;40181;51.560;13.000;2023-07-31T11:07:00;100031.16;;;19.28;82.70
54270;BME280;40181;51.560;13.000;2023-07-31T11:09:33;100032.59;;;19.38;82.62
54270;BME280;40181;51.560;13.000;2023-07-31T11:12:03;100024.72;;;19.62;82.08
54270;BME280;40181;51.560;13.000;2023-07-31T11:14:34;100028.97;;;19.41;82.49
54270;BME280;40181;51.560;13.000;2023-07-31T11:17:06;100029.53;;;19.51;81.83
54270;BME280;40181;51.560;13.000;2023-07-31T11:19:38;100012.25;;;19.64;81.71
54270;BME280;40181;51.560;13.000;2023-07-31T11:22:07;100009.78;;;19.85;81.15
54270;BME280;40181;51.560;13.000;2023-07-31T11:24:37;100025.66;;;19.61;79.79
54270;BME280;40181;51.560;13.000;2023-07-31T11:27:07;100014.22;;;19.57;78.33
54270;BME280;40181;51.560;13.000;2023-07-31T11:29:36;100007.69;;;19.95;78.83
54270;BME280;40181;51.560;13.000;2023-07-31T11:32:15;100011.25;;;19.94;78.06
54270;BME280;40181;51.560;13.000;2023-07-31T11:34:54;100002.53;;;19.88;77.66
54270;BME280;40181;51.560;13.000;2023-07-31T11:37:24;99987.66;;;20.34;77.20
54270;BME280;40181;51.560;13.000;2023-07-31T11:39:59;99997.16;;;20.17;76.39
54270;BME280;40181;51.560;13.000;2023-07-31T11:42:29;99994.28;;;20.47;76.26
54270;BME280;40181;51.560;13.000;2023-07-31T11:44:58;99998.91;;;20.42;76.51
54270;BME280;40181;51.560;13.000;2023-07-31T11:47:30;99985.84;;;20.83;75.75
54270;BME280;40181;51.560;13.000;2023-07-31T11:50:07;99997.22;;;20.65;75.25
54270;BME280;40181;51.560;13.000;2023-07-31T11:52:41;99993.59;;;20.42;75.83
54270;BME280;40181;51.560;13.000;2023-07-31T11:55:13;99972.84;;;20.74;75.29
54270;BME280;40181;51.560;13.000;2023-07-31T11:57:44;99984.97;;;20.59;75.67
54270;BME280;40181;51.560;13.000;2023-07-31T12:00:15;99968.38;;;20.98;74.66
54270;BME280;40181;51.560;13.000;2023-07-31T12:02:44;99976.13;;;20.57;75.73
54270;BME280;40181;51.560;13.000;2023-07-31T12:05:16;99975.31;;;20.55;75.06
54270;BME280;40181;51.560;13.000;2023-07-31T12:07:47;99973.50;;;20.79;74.19
54270;BME280;40181;51.560;13.000;2023-07-31T12:10:25;99965.00;;;21.15;73.55
54270;BME280;40181;51.560;13.000;2023-07-31T12:12:59;99958.75;;;21.17;73.50
54270;BME280;40181;51.560;13.000;2023-07-31T12:15:33;99972.53;;;21.28;71.95
54270;BME280;40181;51.560;13.000;2023-07-31T12:18:07;99972.84;;;20.98;71.27
54270;BME280;40181;51.560;13.000;2023-07-31T12:20:44;99977.53;;;20.91;71.77
54270;BME280;40181;51.560;13.000;2023-07-31T12:23:15;99969.47;;;20.93;70.67
54270;BME280;40181;51.560;13.000;2023-07-31T12:26:00;99980.38;;;20.86;71.67
54270;BME280;40181;51.560;13.000;2023-07-31T12:28:30;99970.28;;;20.71;71.14
54270;BME280;40181;51.560;13.000;2023-07-31T12:31:04;99961.91;;;21.04;71.38
54270;BME280;40181;51.560;13.000;2023-07-31T12:33:34;99966.09;;;20.87;70.78
54270;BME280;40181;51.560;13.000;2023-07-31T12:36:09;99955.44;;;21.10;70.26
54270;BME280;40181;51.560;13.000;2023-07-31T12:38:39;99946.59;;;21.09;70.13
54270;BME280;40181;51.560;13.000;2023-07-31T12:41:09;99954.09;;;20.99;70.30
54270;BME280;40181;51.560;13.000;2023-07-31T12:43:40;99944.75;;;21.32;69.46
54270;BME280;40181;51.560;13.000;2023-07-31T12:46:11;99937.09;;;21.67;68.18
54270;BME280;40181;51.560;13.000;2023-07-31T12:48:41;99924.06;;;21.80;67.20
54270;BME280;40181;51.560;13.000;2023-07-31T12:51:13;99939.66;;;21.48;67.34
54270;BME280;40181;51.560;13.000;2023-07-31T12:53:42;99934.22;;;21.07;66.50
54270;BME280;40181;51.560;13.000;2023-07-31T12:56:11;99931.31;;;21.56;66.43